createdAt,value
2018-03-03T01:33:38.928Z,50.15
2018-03-03T01:36:09.043Z,45.45
2018-03-03T01:38:35.871Z,51.95
2018-03-03T01:41:02.653Z,41.75
2018-03-03T01:43:29.587Z,48.08
2018-03-03T01:45:56.367Z,39.97
2018-03-03T01:48:23.206Z,45.70
2018-03-03T02:06:12.640Z,41.90
2018-03-03T02:08:40.909Z,53.72
2018-03-03T02:11:08.440Z,47.22
2018-03-03T02:13:35.763Z,53.30
2018-03-03T02:16:03.376Z,52.22
2018-03-03T02:18:30.770Z,60.20
2018-03-03T02:20:58.693Z,39.83
2018-03-03T02:23:26.201Z,51.90
2018-03-03T02:25:53.747Z,48.83
2018-03-03T02:28:20.676Z,39.83
2018-03-03T02:30:47.491Z,58.83
2018-03-03T02:33:14.327Z,50.60
2018-03-03T02:35:41.083Z,48.20
2018-03-03T02:38:07.888Z,46.65
2018-03-03T02:40:34.691Z,55.60
2018-03-03T02:43:01.568Z,52.42
2018-03-03T02:45:28.402Z,61.22
2018-03-03T02:47:55.211Z,58.60
2018-03-03T02:50:22.012Z,40.35
2018-03-03T02:52:48.778Z,58.83
2018-03-03T02:55:15.578Z,49.75
2018-03-03T02:57:42.384Z,48.67
2018-03-03T03:00:09.249Z,53.60
2018-03-03T03:02:36.047Z,47.22
2018-03-03T03:05:02.820Z,54.83
2018-03-03T03:07:29.600Z,42.67
2018-03-03T03:09:56.378Z,46.67
2018-03-03T03:12:23.208Z,54.10
2018-03-03T03:14:50.005Z,37.63
2018-03-03T03:17:16.792Z,48.72
2018-03-03T03:19:43.584Z,45.22
2018-03-03T03:22:10.356Z,50.12
2018-03-03T03:24:37.162Z,54.70
2018-03-03T03:27:03.951Z,47.45
2018-03-03T03:29:30.702Z,44.40
2018-03-03T03:31:57.454Z,42.03
2018-03-03T03:34:24.236Z,31.77
2018-03-03T03:36:50.995Z,46.67
2018-03-03T03:39:17.774Z,39.90
2018-03-03T03:41:44.675Z,56.45
2018-03-03T03:44:11.424Z,49.67
2018-03-03T03:46:38.161Z,45.53
2018-03-03T03:49:04.908Z,56.45
2018-03-03T03:51:31.699Z,34.58
2018-03-03T03:53:58.452Z,46.15
2018-03-03T03:56:25.214Z,46.72
2018-03-03T03:58:51.999Z,63.72
2018-03-03T04:01:18.782Z,54.03
2018-03-03T04:03:45.583Z,54.20
2018-03-03T04:06:12.365Z,53.03
2018-03-03T04:08:39.126Z,40.80
2018-03-03T04:11:05.895Z,32.58
2018-03-03T04:13:32.658Z,46.58
2018-03-03T04:15:59.422Z,43.63
2018-03-03T04:18:26.174Z,36.88
2018-03-03T04:20:53.144Z,47.75
2018-03-03T04:23:20.178Z,46.65
2018-03-03T04:25:46.984Z,55.35
2018-03-03T04:28:13.761Z,45.42
2018-03-03T04:30:40.527Z,50.05
2018-03-03T04:33:07.334Z,51.83
2018-03-03T04:35:34.134Z,51.55
2018-03-03T04:38:00.939Z,42.35
2018-03-03T04:40:27.722Z,61.03
2018-03-03T04:42:54.477Z,273.55
2018-03-03T04:45:21.257Z,105.28
2018-03-03T04:47:48.019Z,90.80
2018-03-03T04:50:14.839Z,646.28
2018-03-03T04:52:41.597Z,462.60
2018-03-03T04:55:09.180Z,366.65
2018-03-03T04:57:35.985Z,192.65
2018-03-03T05:00:08.704Z,189.15
2018-03-03T05:02:51.303Z,248.15
2018-03-03T05:05:32.957Z,162.30
2018-03-03T05:08:05.454Z,150.38
2018-03-03T05:10:33.097Z,102.82
2018-03-03T05:13:05.586Z,62.78
2018-03-03T05:15:52.242Z,63.87
2018-03-03T05:18:38.610Z,113.07
2018-03-03T05:21:11.082Z,53.67
2018-03-03T05:23:54.695Z,42.00
2018-03-03T05:26:27.185Z,51.40
2018-03-03T05:28:59.810Z,89.75
2018-03-03T05:31:32.124Z,84.70
2018-03-03T05:34:01.683Z,65.62
2018-03-03T05:36:45.270Z,69.78
2018-03-03T05:39:17.779Z,47.08
2018-03-03T05:42:01.205Z,103.45
2018-03-03T05:44:33.666Z,54.72
2018-03-03T05:47:14.255Z,64.62
2018-03-03T05:49:46.910Z,56.90
2018-03-03T05:52:19.352Z,63.40
2018-03-03T05:54:51.966Z,64.65
2018-03-03T05:57:22.427Z,50.88
2018-03-03T05:59:54.990Z,70.95
2018-03-03T06:02:40.599Z,55.35
2018-03-03T06:05:26.102Z,50.60
2018-03-03T06:10:58.115Z,46.80
2018-03-03T06:13:24.875Z,44.72
2018-03-03T06:15:51.775Z,46.42
2018-03-03T06:18:18.574Z,45.03
2018-03-03T06:20:45.363Z,42.03
2018-03-03T06:23:12.145Z,48.00
2018-03-03T06:25:38.930Z,48.87
2018-03-03T06:28:05.754Z,50.40
2018-03-03T06:30:33.140Z,54.63
2018-03-03T06:32:59.907Z,55.45
2018-03-03T06:35:26.721Z,59.47
2018-03-03T06:37:53.477Z,61.17
2018-03-03T06:40:20.228Z,43.60
2018-03-03T06:42:47.217Z,60.72
2018-03-03T06:45:14.736Z,62.75
2018-03-03T06:47:41.586Z,56.42
2018-03-03T06:50:08.418Z,52.67
2018-03-03T06:52:35.174Z,57.03
2018-03-03T06:55:01.939Z,61.58
2018-03-03T06:57:28.726Z,55.20
2018-03-03T06:59:55.555Z,53.08
2018-03-03T07:02:22.347Z,67.97
2018-03-03T07:04:49.104Z,72.00
2018-03-03T07:07:15.877Z,60.17
2018-03-03T07:09:42.638Z,57.95
2018-03-03T07:12:09.427Z,59.20
2018-03-03T07:14:37.812Z,62.03
2018-03-03T07:17:04.631Z,53.53
2018-03-03T07:19:31.408Z,48.15
2018-03-03T07:21:58.194Z,54.33
2018-03-03T07:24:24.981Z,48.33
2018-03-03T07:26:51.726Z,52.62
2018-03-03T07:29:18.509Z,52.53
2018-03-03T07:31:45.334Z,61.58
2018-03-03T07:34:12.139Z,60.00
2018-03-03T07:36:38.980Z,59.95
2018-03-03T07:39:05.750Z,56.13
2018-03-03T07:41:32.548Z,59.55
2018-03-03T07:43:59.307Z,59.60
2018-03-03T07:46:26.067Z,76.80
2018-03-03T07:48:52.852Z,62.83
2018-03-03T07:51:19.628Z,74.95
2018-03-03T07:53:46.417Z,73.72
2018-03-03T07:56:13.181Z,63.13
2018-03-03T07:58:45.778Z,62.20
2018-03-03T08:01:12.524Z,56.10
2018-03-03T08:03:39.298Z,57.58
2018-03-03T08:06:06.472Z,62.28
2018-03-03T08:08:33.422Z,55.33
2018-03-03T08:11:00.174Z,71.75
2018-03-03T08:13:26.954Z,55.53
2018-03-03T08:15:54.190Z,56.78
2018-03-03T08:18:20.943Z,59.25
2018-03-03T08:20:47.822Z,65.57
2018-03-03T08:23:14.563Z,63.92
2018-03-03T08:25:41.529Z,82.95
2018-03-03T08:28:08.339Z,52.70
2018-03-03T08:30:35.209Z,63.65
2018-03-03T08:33:02.006Z,53.75
2018-03-03T08:35:28.774Z,67.35
2018-03-03T08:37:55.582Z,62.10
2018-03-03T08:40:22.329Z,54.97
2018-03-03T08:42:49.078Z,50.92
2018-03-03T08:45:15.917Z,55.55
2018-03-03T08:47:42.726Z,37.30
2018-03-03T08:50:09.504Z,48.30
2018-03-03T08:52:36.289Z,57.15
2018-03-03T08:55:03.088Z,65.78
2018-03-03T08:57:29.857Z,53.45
2018-03-03T08:59:56.643Z,50.75
2018-03-03T09:02:23.423Z,47.20
2018-03-03T09:04:50.202Z,53.00
2018-03-03T09:07:16.995Z,50.15
2018-03-03T09:09:43.744Z,61.47
2018-03-03T09:12:10.513Z,53.10
2018-03-03T09:14:37.303Z,56.83
2018-03-03T09:17:04.077Z,50.42
2018-03-03T09:19:30.843Z,38.97
2018-03-03T09:21:57.620Z,47.33
2018-03-03T09:24:25.256Z,48.03
2018-03-03T09:26:52.031Z,52.63
2018-03-03T09:29:18.789Z,51.45
2018-03-03T09:31:45.592Z,42.78
2018-03-03T09:34:12.393Z,36.58
2018-03-03T09:36:39.203Z,39.70
2018-03-03T09:39:05.981Z,50.17
2018-03-03T09:41:32.748Z,46.70
2018-03-03T09:43:59.529Z,40.70
2018-03-03T09:46:26.468Z,45.67
2018-03-03T09:48:53.231Z,44.40
2018-03-03T09:51:20.045Z,28.80
2018-03-03T09:53:46.867Z,36.20
2018-03-03T09:56:14.260Z,41.33
2018-03-03T09:58:41.027Z,42.53
2018-03-03T10:01:07.862Z,38.93
2018-03-03T10:03:34.662Z,99.70
2018-03-03T10:06:02.825Z,44.03
2018-03-03T10:08:29.643Z,37.07
2018-03-03T10:10:57.410Z,47.13
2018-03-03T10:13:24.190Z,42.50
2018-03-03T10:15:50.979Z,49.20
2018-03-03T10:18:17.772Z,34.70
2018-03-03T10:20:44.597Z,35.33
2018-03-03T10:23:12.221Z,35.13
2018-03-03T10:25:38.980Z,38.50
2018-03-03T10:28:05.735Z,45.17
2018-03-03T10:30:32.518Z,47.97
2018-03-03T10:32:59.313Z,64.97
2018-03-03T10:35:26.102Z,49.63
2018-03-03T10:37:52.851Z,39.47
2018-03-03T10:40:19.742Z,45.80
2018-03-03T10:42:46.518Z,39.83
2018-03-03T10:45:13.263Z,38.27
2018-03-03T10:47:40.047Z,42.30
2018-03-03T10:50:06.812Z,41.70
2018-03-03T10:52:33.611Z,42.33
2018-03-03T10:55:00.360Z,7.80
2018-03-03T10:57:27.286Z,42.43
2018-03-03T10:59:54.034Z,34.97
2018-03-03T11:02:20.828Z,41.53
2018-03-03T11:04:47.599Z,39.37
2018-03-03T11:07:14.327Z,97.97
2018-03-03T11:09:41.115Z,46.53
2018-03-03T11:12:07.904Z,51.20
2018-03-03T11:14:34.678Z,33.93
2018-03-03T11:17:01.486Z,69.07
2018-03-03T11:19:28.261Z,41.67
2018-03-03T11:21:55.035Z,24.27
2018-03-03T11:24:21.827Z,30.33
2018-03-03T11:26:48.588Z,27.03
2018-03-03T11:29:15.358Z,44.60
2018-03-03T11:31:42.688Z,32.57
2018-03-03T11:34:09.454Z,37.00
2018-03-03T11:36:36.292Z,38.27
2018-03-03T11:39:03.113Z,37.17
2018-03-03T11:41:29.876Z,33.37
2018-03-03T11:43:56.662Z,39.40
2018-03-03T11:46:24.418Z,29.73
2018-03-03T11:48:51.283Z,27.57
2018-03-03T11:51:18.115Z,34.50
2018-03-03T11:53:44.894Z,36.37
2018-03-03T11:56:11.690Z,36.33
2018-03-03T11:58:38.499Z,45.83
2018-03-03T12:01:05.308Z,33.03
2018-03-03T12:03:32.086Z,35.10
2018-03-03T12:05:59.963Z,27.37
2018-03-03T12:08:26.838Z,35.77
2018-03-03T12:10:53.631Z,32.13
2018-03-03T12:13:20.416Z,35.50
2018-03-03T12:15:48.666Z,32.00
2018-03-03T12:18:15.578Z,34.93
2018-03-03T12:20:42.398Z,33.47
2018-03-03T12:23:09.205Z,35.23
2018-03-03T12:25:35.994Z,29.97
2018-03-03T12:28:02.790Z,33.00
2018-03-03T12:30:29.644Z,31.87
2018-03-03T12:32:56.421Z,36.17
2018-03-03T12:35:23.256Z,27.77
2018-03-03T12:37:50.050Z,33.70
2018-03-03T12:40:16.862Z,32.27
2018-03-03T12:42:43.653Z,35.77
2018-03-03T12:45:10.462Z,31.63
2018-03-03T12:47:37.268Z,40.17
2018-03-03T12:50:04.060Z,34.50
2018-03-03T12:52:30.846Z,26.83
2018-03-03T12:54:57.693Z,36.67
2018-03-03T12:57:24.500Z,31.93
2018-03-03T12:59:51.337Z,32.90
2018-03-03T13:02:18.116Z,28.97
2018-03-03T13:04:44.992Z,28.57
2018-03-03T13:07:11.800Z,28.23
2018-03-03T13:09:38.608Z,36.80
2018-03-03T13:12:05.814Z,101.47
2018-03-03T13:14:32.584Z,24.77
2018-03-03T13:16:59.384Z,32.97
2018-03-03T13:19:26.188Z,37.03
2018-03-03T13:21:53.006Z,45.60
2018-03-03T13:24:19.813Z,55.93
2018-03-03T13:26:46.590Z,256.87
2018-03-03T13:29:13.407Z,43.73
2018-03-03T13:31:40.328Z,35.43
2018-03-03T13:34:07.134Z,24.23
2018-03-03T13:36:33.942Z,22.43
2018-03-03T13:39:00.740Z,22.27
2018-03-03T13:41:27.590Z,38.77
2018-03-03T13:43:54.557Z,59.03
2018-03-03T13:46:21.514Z,48.23
2018-03-03T13:48:48.323Z,430.63
2018-03-03T13:51:15.126Z,49.73
2018-03-03T13:53:42.039Z,32.47
2018-03-03T13:56:08.916Z,34.27
2018-03-03T13:58:35.895Z,24.90
2018-03-03T14:01:02.706Z,44.70
2018-03-03T14:03:29.765Z,38.90
2018-03-03T14:05:58.681Z,88.43
2018-03-03T14:08:25.542Z,46.23
2018-03-03T14:10:52.380Z,23.93
2018-03-03T14:13:19.172Z,63.30
2018-03-03T14:15:45.974Z,43.63
2018-03-03T14:18:12.743Z,31.67
2018-03-03T14:20:39.571Z,39.30
2018-03-03T14:23:06.330Z,31.00
2018-03-03T14:25:33.140Z,26.77
2018-03-03T14:27:59.919Z,49.70
2018-03-03T14:30:26.683Z,46.67
2018-03-03T14:32:53.490Z,31.77
2018-03-03T14:35:20.498Z,23.63
2018-03-03T14:37:47.307Z,32.30
2018-03-03T14:40:14.111Z,38.33
2018-03-03T14:42:40.905Z,46.00
2018-03-03T14:45:07.682Z,34.90
2018-03-03T14:47:34.520Z,34.63
2018-03-03T14:50:01.318Z,28.73
2018-03-03T14:52:28.124Z,28.33
2018-03-03T14:54:54.942Z,30.70
2018-03-03T14:57:21.740Z,25.37
2018-03-03T14:59:48.585Z,25.13
2018-03-03T15:02:15.384Z,28.77
2018-03-03T15:04:42.697Z,42.53
2018-03-03T15:07:09.491Z,23.73
2018-03-03T15:09:36.288Z,34.87
2018-03-03T15:12:03.062Z,27.03
2018-03-03T15:14:29.829Z,25.93
2018-03-03T15:16:56.752Z,27.07
2018-03-03T15:19:23.535Z,20.77
2018-03-03T15:21:50.326Z,22.50
2018-03-03T15:24:17.237Z,25.37
2018-03-03T15:26:44.061Z,133.43
2018-03-03T15:29:10.896Z,359.87
2018-03-03T15:31:37.704Z,463.53
2018-03-03T15:34:04.610Z,107.33
2018-03-03T15:36:31.475Z,166.20
2018-03-03T15:38:58.300Z,282.13
2018-03-03T15:41:25.648Z,78.53
2018-03-03T15:43:52.476Z,499.50
2018-03-03T15:46:19.234Z,158.37
2018-03-03T15:48:45.997Z,43.30
2018-03-03T15:51:12.774Z,48.53
2018-03-03T15:53:39.530Z,47.40
2018-03-03T15:56:06.289Z,36.00
2018-03-03T15:58:33.089Z,65.80
2018-03-03T16:00:59.915Z,42.30
2018-03-03T16:03:26.758Z,34.47
2018-03-03T16:05:53.513Z,46.97
2018-03-03T16:08:20.398Z,29.93
2018-03-03T16:10:47.214Z,29.53
2018-03-03T16:13:14.468Z,39.33
2018-03-03T16:15:41.375Z,56.70
2018-03-03T16:18:08.127Z,39.03
2018-03-03T16:20:34.913Z,26.37
2018-03-03T16:23:02.003Z,39.37
2018-03-03T16:25:28.782Z,27.30
2018-03-03T16:27:55.582Z,31.90
2018-03-03T16:30:22.359Z,40.00
2018-03-03T16:32:49.162Z,27.87
2018-03-03T16:35:15.926Z,37.47
2018-03-03T16:37:42.675Z,26.53
2018-03-03T16:40:09.467Z,33.50
2018-03-03T16:42:36.254Z,32.73
2018-03-03T16:45:03.085Z,29.03
2018-03-03T16:47:29.861Z,40.97
2018-03-03T16:49:56.678Z,37.40
2018-03-03T16:52:23.466Z,44.73
2018-03-03T16:54:50.231Z,43.67
2018-03-03T16:57:16.980Z,47.63
2018-03-03T16:59:43.765Z,59.77
2018-03-03T17:02:10.560Z,42.80
2018-03-03T17:04:37.310Z,41.23
2018-03-03T17:07:04.496Z,53.92
2018-03-03T17:09:31.336Z,50.15
2018-03-03T17:11:58.110Z,57.33
2018-03-03T17:14:24.938Z,51.57
2018-03-03T17:16:51.683Z,55.60
2018-03-03T17:19:18.472Z,77.17
2018-03-03T17:21:45.252Z,59.57
2018-03-03T17:24:12.063Z,67.80
2018-03-03T17:26:38.826Z,61.50
2018-03-03T17:29:06.169Z,55.50
2018-03-03T17:31:32.988Z,64.20
2018-03-03T17:33:59.865Z,72.60
2018-03-03T17:36:26.671Z,79.65
2018-03-03T17:38:53.440Z,82.78
2018-03-03T17:41:20.241Z,74.95
2018-03-03T17:43:47.046Z,166.65
2018-03-03T17:46:13.822Z,354.25
2018-03-03T17:48:40.646Z,237.80
2018-03-03T17:51:07.450Z,216.32
2018-03-03T17:53:34.229Z,161.32
2018-03-03T17:56:01.077Z,161.12
2018-03-03T17:58:27.927Z,132.90
2018-03-03T18:00:54.748Z,133.65
2018-03-03T18:03:21.548Z,128.68
2018-03-03T18:05:48.355Z,147.13
2018-03-03T18:08:15.167Z,160.80
2018-03-03T18:10:41.934Z,220.15
2018-03-03T18:13:08.716Z,156.07
2018-03-03T18:15:35.530Z,136.80
2018-03-03T18:18:02.334Z,134.52
2018-03-03T18:20:29.106Z,140.23
2018-03-03T18:22:55.871Z,117.57
2018-03-03T18:25:22.655Z,111.82
2018-03-03T18:27:49.416Z,119.30
2018-03-03T18:30:16.274Z,124.10
2018-03-03T18:32:43.088Z,120.85
2018-03-03T18:35:09.854Z,126.38
2018-03-03T18:37:36.626Z,90.70
2018-03-03T18:40:03.831Z,79.95
2018-03-03T18:42:30.729Z,85.10
2018-03-03T18:44:57.592Z,88.95
2018-03-03T18:47:24.386Z,99.13
2018-03-03T18:49:51.192Z,104.65
2018-03-03T18:52:17.972Z,104.90
2018-03-03T18:54:44.738Z,102.32
2018-03-03T18:57:11.566Z,84.78
2018-03-03T18:59:38.369Z,84.05
2018-03-03T19:02:05.141Z,91.43
2018-03-03T19:04:32.052Z,76.28
2018-03-03T19:06:58.822Z,86.90
2018-03-03T19:09:25.618Z,93.60
2018-03-03T19:11:52.386Z,91.22
2018-03-03T19:14:19.143Z,66.57
2018-03-03T19:16:45.955Z,99.75
2018-03-03T19:19:12.750Z,71.15
2018-03-03T19:21:39.540Z,73.97
2018-03-03T19:24:06.332Z,70.18
2018-03-03T19:26:33.117Z,88.78
2018-03-03T19:28:59.911Z,82.95
2018-03-03T19:31:27.486Z,100.85
2018-03-03T19:33:54.276Z,106.12
2018-03-03T19:36:21.058Z,85.35
2018-03-03T19:38:47.856Z,99.32
2018-03-03T19:41:14.666Z,81.37
2018-03-03T19:43:41.443Z,84.28
2018-03-03T19:46:08.234Z,87.55
2018-03-03T19:48:35.029Z,75.18
2018-03-03T19:51:02.162Z,91.05
2018-03-03T19:53:29.855Z,82.43
2018-03-03T19:55:56.640Z,84.30
2018-03-03T19:58:23.435Z,76.28
2018-03-03T20:00:50.230Z,64.47
2018-03-03T20:03:17.024Z,69.18
2018-03-03T20:05:43.786Z,60.67
2018-03-03T20:08:10.598Z,74.12
2018-03-03T20:10:37.362Z,74.00
2018-03-03T20:13:04.221Z,81.78
2018-03-03T20:15:31.047Z,190.88
2018-03-03T20:17:57.822Z,88.45
2018-03-03T20:20:24.612Z,127.25
2018-03-03T20:22:51.412Z,101.12
2018-03-03T20:25:18.229Z,120.90
2018-03-03T20:27:45.065Z,122.20
2018-03-03T20:30:11.830Z,87.55
2018-03-03T20:32:38.651Z,97.40
2018-03-03T20:35:05.699Z,82.68
2018-03-03T20:37:35.055Z,78.70
2018-03-03T20:40:02.275Z,181.40
2018-03-03T20:42:29.065Z,318.98
2018-03-03T20:44:55.822Z,100.97
2018-03-03T20:47:22.600Z,277.98
2018-03-03T20:49:49.376Z,230.07
2018-03-03T20:52:16.171Z,275.30
2018-03-03T20:54:43.398Z,207.35
2018-03-03T20:57:10.173Z,253.15
2018-03-03T20:59:36.936Z,423.90
2018-03-03T21:02:03.718Z,536.05
2018-03-03T21:04:30.497Z,394.73
2018-03-03T21:06:57.243Z,463.08
2018-03-03T21:09:24.010Z,394.55
2018-03-03T21:12:10.595Z,239.93
2018-03-03T21:14:37.363Z,176.65
2018-03-03T21:17:04.157Z,181.27
2018-03-03T21:19:30.909Z,221.55
2018-03-03T21:21:57.671Z,158.43
2018-03-03T21:24:24.482Z,148.07
2018-03-03T21:26:51.377Z,140.98
2018-03-03T21:29:18.261Z,118.28
2018-03-03T21:31:45.046Z,215.37
2018-03-03T21:34:11.794Z,137.90
2018-03-03T21:36:38.610Z,134.15
2018-03-03T21:39:05.570Z,170.23
2018-03-03T21:41:32.357Z,88.87
2018-03-03T21:43:59.149Z,160.45
2018-03-03T21:46:25.945Z,77.80
2018-03-03T21:48:52.712Z,109.00
2018-03-03T21:51:19.475Z,94.37
2018-03-03T21:53:46.241Z,82.78
2018-03-03T21:56:13.002Z,118.03
2018-03-03T21:58:39.811Z,94.22
2018-03-03T22:01:07.431Z,99.90
2018-03-03T22:03:34.214Z,72.85
2018-03-03T22:06:00.973Z,67.25
2018-03-03T22:08:27.758Z,82.25
2018-03-03T22:10:54.527Z,98.15
2018-03-03T22:13:21.318Z,86.10
2018-03-03T22:15:48.107Z,68.28
2018-03-03T22:18:14.866Z,96.20
2018-03-03T22:20:41.664Z,67.93
2018-03-03T22:23:08.479Z,88.00
2018-03-03T22:25:35.300Z,85.62
2018-03-03T22:28:02.123Z,74.57
2018-03-03T22:30:28.920Z,73.95
2018-03-03T22:32:55.739Z,85.80
2018-03-03T22:35:22.519Z,76.65
2018-03-03T22:37:49.554Z,73.35
2018-03-03T22:40:16.346Z,75.85
2018-03-03T22:42:43.130Z,82.03
2018-03-03T22:45:09.874Z,62.25
2018-03-03T22:47:36.657Z,94.05
2018-03-03T22:50:03.558Z,77.70
2018-03-03T22:52:30.516Z,74.43
2018-03-03T22:54:57.262Z,98.80
2018-03-03T22:57:24.046Z,81.50
2018-03-03T22:59:50.805Z,91.43
2018-03-03T23:02:17.701Z,85.97
2018-03-03T23:04:44.463Z,77.43
2018-03-03T23:07:11.254Z,75.55
2018-03-03T23:09:38.022Z,83.45
2018-03-03T23:12:04.779Z,81.12
2018-03-03T23:14:31.637Z,76.78
2018-03-03T23:16:58.384Z,70.70
2018-03-03T23:19:25.177Z,77.87
2018-03-03T23:21:51.945Z,82.53
2018-03-03T23:24:18.705Z,86.57
2018-03-03T23:26:45.478Z,98.05
2018-03-03T23:29:12.274Z,101.72
2018-03-03T23:31:39.016Z,114.18
2018-03-03T23:34:06.762Z,142.37
2018-03-03T23:36:33.554Z,150.32
2018-03-03T23:39:00.330Z,131.25
2018-03-03T23:41:27.118Z,151.48
2018-03-03T23:43:53.952Z,128.30
2018-03-03T23:46:20.726Z,112.22
2018-03-03T23:48:47.494Z,109.87
2018-03-03T23:51:14.276Z,98.25
2018-03-03T23:53:41.043Z,116.22
2018-03-03T23:56:07.802Z,131.30
2018-03-03T23:58:34.579Z,145.52
